Turner, Idaho
Current Conditions -  °F | °C
As of 5:55 PM on Monday 24 Nov 2014 (Local Time) from KAFO Reporting Station
Clear Clear  
Wind Chill: 19°   Ceiling: Unl
Heat Index: 19°   Visibility: 10mi
Dew Point: 12°   Wind: 3mph
Humidity: 74%   Direction: 60°ENE
Pressure: 30.31"   Gusts: NA
Location:  42.5232°N, 111.761°W
Report Text: KAFO 250055Z AUTO 06003KT 10SM CLR M07/M11 A3031 RMK AO2
Loading
Personal Weather Stations






























Interactive Weather Map New forecast layout! Learn more

10-Day Weather Forecast

Advertisements
Track Severe Weather on mobile